Dobbins Air Reserve Base Airport
KMGE : now visible

Airfield :











YOU CAN JOIN US ON...

 
LOGIN :

Register | Disclaimer

   EN    FR    IT 

 









Legend :    VFR   Marginal VFR   IFR   Intensive IFR   Very Intensive IFR
Visi :
Ceiling :
>= 8 km
>= 3000ft
5 to 8 km
1000 to 3000 ft
1500m to 5 km
500 to 1000 ft
800 to 1500m
200 to 500 ft
< 800m
< 200 ft
Symbols :   Thunderstorms  Fog  Heavy snow  Heavy precipitations  Wind > 20 kt






- Airport Elevation : 1068 ft


KMGE - Dobbins Air Reserve Base

CURRENT METAR :
  • 071456Z 09002KT 10SM FEW020 SCT060 SCT150 BKN250 27/22 A3011 RMK AO2A SLP187 T02700219 52008 $

EXPIRED METARs :
  • 071356Z 07005KT 10SM FEW015 FEW150 BKN250 26/22 A3010 RMK AO2A SLP183 T02570218 $
  • 071256Z 08004KT 7SM FEW011 FEW110 BKN250 24/21 A3010 RMK AO2A SLP184 T02350212 $
  • 071220Z 09005KT 10SM FEW012 SCT110 BKN250 23/21 A3009 RMK AO2A $

TAF TAF KMGE
Valid from the 07 at 13:00 until the 08 at 19:00 UTC


071310Z 0713/0819 VRB05KT 9999 SCT010 SCT120 BKN250 QNH3004INS
BECMG 0716/0717 26009KT 9999 VCTS SCT040CB BKN120 BKN250 QNH2998INS
BECMG 0801/0802 VRB05KT 9999 NSW FEW120 SCT250 QNH3003INS
BECMG 0816/0817 28007KT 9999 SCT040 BKN250 QNH3008INS TX33/0721Z TN21/0812Z
KZTL FIR / North America



MET'MAP, your aeronautical weather chart ! - Copyright ORBIFLY December 2007 - Disclaimer

ORBIFLY MET'MAP TEAM :

Programming & Development : Alexandra Zaïnal
Concept & original design : Baudouin d'Aumeries
Assistance for programming : Marc-Olivier Méhu
Technical & hardware support : Manuel Goepfert

Contact : metmap@orbifly.com




SOURCES & CREDITS :

   NOAA       Earth
Advisory